Time;durP1;ratioP1;P1;durP2;ratioP2;P2;SDS_P1;SDS_P2;PMS_P1;PMS_P2;Temp;Humidity;BMP_temperature;BMP_pressure;BME280_temperature;BME280_humidity;BME280_pressure;Samples;Min_cycle;Max_cycle;Signal;HPM_P1;HPM_P2
2022/03/10 00:02:24;;;;;;;18.08;8.90;;;7.10;99.90;;;;;;4984328;23;20464;-62
2022/03/10 00:04:50;;;;;;;17.00;9.00;;;7.10;99.90;;;;;;4961996;28;20035;-61
2022/03/10 00:07:16;;;;;;;15.65;7.95;;;7.00;99.90;;;;;;4955397;28;20063;-63
2022/03/10 00:09:41;;;;;;;16.98;8.90;;;7.00;99.90;;;;;;4962113;28;20031;-59
2022/03/10 00:12:07;;;;;;;14.77;8.82;;;6.90;99.90;;;;;;4969960;28;20027;-61
2022/03/10 00:14:33;;;;;;;20.20;9.40;;;6.90;99.90;;;;;;4960505;28;20062;-61
2022/03/10 00:16:59;;;;;;;18.75;8.90;;;7.00;99.90;;;;;;4964184;28;20066;-61
2022/03/10 00:19:25;;;;;;;16.33;9.18;;;7.00;99.90;;;;;;4973269;28;20039;-60
2022/03/10 00:21:51;;;;;;;18.55;9.43;;;7.00;99.90;;;;;;4961791;28;20035;-61
2022/03/10 00:24:20;;;;;;;17.65;8.88;;;7.00;99.90;;;;;;4972067;28;20055;-64
2022/03/10 00:26:46;;;;;;;14.93;8.82;;;7.00;99.90;;;;;;4960817;28;20066;-61
2022/03/10 00:29:12;;;;;;;19.95;9.52;;;7.00;99.90;;;;;;4972030;28;20027;-63
2022/03/10 00:31:37;;;;;;;16.90;9.25;;;6.90;99.90;;;;;;4962510;28;20042;-58
2022/03/10 00:34:03;;;;;;;18.98;9.32;;;6.90;99.90;;;;;;4972528;28;20038;-60
2022/03/10 00:36:29;;;;;;;18.83;8.93;;;6.80;99.90;;;;;;4962543;28;20396;-61
2022/03/10 00:38:54;;;;;;;23.08;8.93;;;6.70;99.90;;;;;;4962333;28;20031;-62
2022/03/10 00:41:21;;;;;;;17.60;9.48;;;6.60;99.90;;;;;;4954217;28;20420;-60
2022/03/10 00:43:47;;;;;;;17.38;8.90;;;6.60;99.90;;;;;;4961198;28;20023;-61
2022/03/10 00:46:13;;;;;;;20.80;9.48;;;6.60;99.90;;;;;;4962679;28;20033;-61
2022/03/10 00:48:39;;;;;;;18.85;9.98;;;6.60;99.90;;;;;;4963239;28;20095;-62
2022/03/10 00:51:05;;;;;;;16.60;9.07;;;6.60;99.90;;;;;;4962732;28;20042;-63
2022/03/10 00:53:31;;;;;;;21.27;10.05;;;6.50;99.90;;;;;;4964583;28;20045;-60
2022/03/10 00:55:57;;;;;;;21.27;9.77;;;6.40;99.90;;;;;;4962299;28;20027;-61
2022/03/10 00:58:22;;;;;;;19.55;9.00;;;6.40;99.90;;;;;;4965980;28;20039;-63
2022/03/10 01:00:48;;;;;;;19.48;9.95;;;6.30;99.90;;;;;;4963935;28;20055;-62
2022/03/10 01:03:14;;;;;;;17.65;9.73;;;6.20;99.90;;;;;;4965073;28;20145;-61
2022/03/10 01:05:40;;;;;;;21.40;10.02;;;6.30;99.90;;;;;;4963439;28;20023;-62
2022/03/10 01:08:05;;;;;;;21.08;10.32;;;6.20;99.90;;;;;;4963828;28;20066;-62
2022/03/10 01:10:32;;;;;;;21.02;9.52;;;6.20;99.90;;;;;;4965191;28;20058;-62
2022/03/10 01:12:57;;;;;;;22.08;10.45;;;6.20;99.90;;;;;;4963482;28;20511;-61
2022/03/10 01:15:25;;;;;;;20.88;10.65;;;6.10;99.90;;;;;;4965368;28;20113;-60
2022/03/10 01:17:50;;;;;;;23.98;10.40;;;6.00;99.90;;;;;;4963288;28;20095;-60
2022/03/10 01:20:17;;;;;;;24.77;10.43;;;6.10;99.90;;;;;;4961620;28;20031;-63
2022/03/10 01:22:43;;;;;;;21.85;10.38;;;6.00;99.90;;;;;;4960022;28;20365;-59
2022/03/10 01:25:10;;;;;;;19.95;9.70;;;6.00;99.90;;;;;;4953357;28;20027;-60
2022/03/10 01:27:35;;;;;;;20.23;10.00;;;5.90;99.90;;;;;;4963118;28;20081;-60
2022/03/10 01:30:03;;;;;;;19.45;9.48;;;5.90;99.90;;;;;;4967460;28;20026;-60
2022/03/10 01:32:28;;;;;;;23.98;11.00;;;5.90;99.90;;;;;;4962770;28;20412;-62
2022/03/10 01:34:54;;;;;;;20.90;10.05;;;5.90;99.90;;;;;;4967648;28;20027;-62
2022/03/10 01:37:20;;;;;;;24.02;11.30;;;5.90;99.90;;;;;;4962903;28;20022;-62
2022/03/10 01:39:46;;;;;;;25.00;9.90;;;5.80;99.90;;;;;;4968319;28;20130;-61
2022/03/10 01:42:12;;;;;;;22.63;10.60;;;5.80;99.90;;;;;;4963058;28;20050;-62
2022/03/10 01:44:38;;;;;;;18.73;10.15;;;5.80;99.90;;;;;;4968859;28;20038;-60
2022/03/10 01:47:05;;;;;;;21.02;10.20;;;5.70;99.90;;;;;;4962497;28;20027;-63
2022/03/10 01:49:34;;;;;;;20.90;10.63;;;5.80;99.90;;;;;;4969479;28;20127;-62
2022/03/10 01:52:01;;;;;;;21.45;10.50;;;5.80;99.90;;;;;;4962051;28;20039;-62
2022/03/10 01:54:27;;;;;;;19.15;10.25;;;5.80;99.90;;;;;;4973824;28;20039;-61
2022/03/10 01:56:53;;;;;;;24.80;10.98;;;5.80;99.90;;;;;;4962850;28;20029;-62
2022/03/10 01:59:20;;;;;;;23.85;10.65;;;5.70;99.90;;;;;;4968099;28;20400;-60
2022/03/10 02:01:46;;;;;;;20.25;9.88;;;5.60;99.90;;;;;;4964658;28;20108;-61
2022/03/10 02:04:12;;;;;;;22.23;10.43;;;5.60;99.90;;;;;;4967334;28;20567;-61
2022/03/10 02:06:38;;;;;;;26.15;11.18;;;5.50;99.90;;;;;;4964936;28;20031;-60
2022/03/10 02:11:48;;;;;;;20.65;10.20;;;5.50;99.90;;;;;;4965242;28;20050;-63
2022/03/10 02:19:43;;;;;;;23.33;10.73;;;5.30;99.90;;;;;;4971600;28;20077;-61
2022/03/10 02:22:13;;;;;;;24.25;10.80;;;5.40;99.90;;;;;;4963126;28;20039;-62
2022/03/10 02:24:42;;;;;;;18.05;9.63;;;5.30;99.90;;;;;;4961847;28;20062;-61
2022/03/10 02:27:13;;;;;;;22.70;10.43;;;5.30;99.90;;;;;;4953803;28;20110;-59
2022/03/10 02:29:42;;;;;;;26.70;11.05;;;5.30;99.90;;;;;;4962519;28;20019;-59
2022/03/10 02:32:07;;;;;;;21.73;11.20;;;5.30;99.90;;;;;;4935599;29;20356;-60
2022/03/10 02:34:33;;;;;;;28.92;11.30;;;5.20;99.90;;;;;;4935055;29;20028;-60
2022/03/10 02:36:58;;;;;;;25.33;12.00;;;5.20;99.90;;;;;;4934800;29;20032;-63
2022/03/10 02:39:24;;;;;;;22.27;11.25;;;5.30;99.90;;;;;;4962135;28;20351;-58
2022/03/10 02:41:50;;;;;;;21.92;10.95;;;5.30;99.90;;;;;;4971625;28;20037;-58
2022/03/10 02:44:15;;;;;;;23.10;11.68;;;5.30;99.90;;;;;;4963038;28;20086;-60
2022/03/10 02:46:41;;;;;;;21.35;10.65;;;5.20;99.90;;;;;;4960404;28;20090;-60
2022/03/10 02:49:06;;;;;;;23.88;10.60;;;5.20;99.90;;;;;;4965470;28;20023;-60
2022/03/10 02:51:32;;;;;;;22.63;11.20;;;5.20;99.90;;;;;;4965936;28;20366;-61
2022/03/10 02:53:57;;;;;;;26.10;11.32;;;5.10;99.90;;;;;;4962486;28;20086;-61
2022/03/10 02:56:23;;;;;;;21.38;11.38;;;5.10;99.90;;;;;;4961073;28;20035;-63
2022/03/10 02:58:48;;;;;;;24.92;11.35;;;5.00;99.90;;;;;;4971712;28;20046;-62
2022/03/10 03:01:14;;;;;;;25.90;12.65;;;5.00;99.90;;;;;;4961527;28;20133;-64
2022/03/10 03:03:40;;;;;;;25.17;12.00;;;5.10;99.90;;;;;;4968820;28;20058;-63
2022/03/10 03:06:05;;;;;;;25.55;11.77;;;5.00;99.90;;;;;;4962026;28;20046;-63
2022/03/10 03:08:31;;;;;;;26.13;11.98;;;4.90;99.90;;;;;;4968763;28;20038;-63
2022/03/10 03:10:56;;;;;;;27.13;12.05;;;4.90;99.90;;;;;;4962842;28;20058;-64
2022/03/10 03:13:22;;;;;;;24.30;12.10;;;4.90;99.90;;;;;;4968054;28;20089;-64
2022/03/10 03:15:47;;;;;;;24.30;11.32;;;4.90;99.90;;;;;;4964429;28;20043;-63
2022/03/10 03:18:13;;;;;;;27.98;12.00;;;4.80;99.90;;;;;;4966722;28;20031;-64
2022/03/10 03:20:39;;;;;;;27.75;12.20;;;4.90;99.90;;;;;;4966075;28;20338;-64
2022/03/10 03:23:04;;;;;;;25.70;13.00;;;4.80;99.90;;;;;;4957331;28;20166;-64
2022/03/10 03:25:30;;;;;;;23.48;11.50;;;4.80;99.90;;;;;;4966039;28;20058;-63
2022/03/10 03:27:56;;;;;;;23.35;11.77;;;4.90;99.90;;;;;;4964678;28;20035;-64
2022/03/10 03:30:21;;;;;;;26.73;12.63;;;4.90;99.90;;;;;;4967351;28;20023;-63
2022/03/10 03:32:47;;;;;;;28.38;12.23;;;4.90;99.90;;;;;;4965387;28;20623;-63
2022/03/10 03:35:14;;;;;;;31.73;11.95;;;4.80;99.90;;;;;;4967228;28;20444;-60
2022/03/10 03:37:39;;;;;;;28.55;13.13;;;4.70;99.90;;;;;;4964554;28;20030;-61
2022/03/10 03:40:06;;;;;;;29.38;11.90;;;4.70;99.90;;;;;;4968227;28;20499;-62
2022/03/10 03:42:34;;;;;;;24.45;11.98;;;4.60;99.90;;;;;;4965284;28;20114;-60
2022/03/10 03:45:01;;;;;;;28.05;11.77;;;4.60;99.90;;;;;;4954338;28;20097;-61
2022/03/10 03:47:26;;;;;;;29.80;12.02;;;4.70;99.90;;;;;;4964353;28;20094;-59
2022/03/10 03:49:52;;;;;;;26.67;12.38;;;4.60;99.90;;;;;;4968818;28;20109;-59
2022/03/10 03:52:18;;;;;;;25.42;12.32;;;4.60;99.90;;;;;;4964189;28;20126;-61
2022/03/10 03:54:43;;;;;;;24.35;11.27;;;4.60;99.90;;;;;;4969452;28;20073;-62
2022/03/10 03:57:09;;;;;;;23.45;11.27;;;4.60;99.90;;;;;;4964675;28;20115;-61
2022/03/10 03:59:34;;;;;;;22.63;11.57;;;4.60;99.90;;;;;;4971676;28;20058;-61
2022/03/10 04:02:00;;;;;;;22.33;11.18;;;4.50;99.90;;;;;;4963661;28;20089;-59
2022/03/10 04:04:25;;;;;;;24.40;11.13;;;4.50;99.90;;;;;;4972633;28;20026;-61
2022/03/10 04:06:51;;;;;;;24.17;11.18;;;4.50;99.90;;;;;;4962141;28;20031;-61
2022/03/10 04:09:17;;;;;;;20.98;11.00;;;4.50;99.90;;;;;;4972136;28;20098;-62
2022/03/10 04:11:42;;;;;;;24.73;12.00;;;4.40;99.90;;;;;;4962614;28;20041;-61
2022/03/10 04:14:10;;;;;;;22.30;11.48;;;4.50;99.90;;;;;;4953010;28;20035;-63
2022/03/10 04:16:35;;;;;;;23.33;11.77;;;4.40;99.90;;;;;;4956540;28;20023;-61
2022/03/10 04:19:01;;;;;;;27.23;11.90;;;4.40;99.90;;;;;;4965084;28;20030;-63
2022/03/10 04:21:27;;;;;;;23.40;11.30;;;4.40;99.90;;;;;;4961714;28;20034;-62
2022/03/10 04:23:52;;;;;;;23.58;11.35;;;4.30;99.90;;;;;;4963991;28;20035;-63
2022/03/10 04:26:18;;;;;;;28.08;11.95;;;4.40;99.90;;;;;;4958596;28;20050;-61
2022/03/10 04:28:43;;;;;;;25.80;11.80;;;4.40;99.90;;;;;;4963214;28;20472;-62
2022/03/10 04:31:09;;;;;;;19.67;10.88;;;4.40;99.90;;;;;;4964952;28;20031;-63
2022/03/10 04:33:35;;;;;;;26.13;11.38;;;4.40;99.90;;;;;;4967025;28;20035;-62
2022/03/10 04:36:00;;;;;;;23.33;11.98;;;4.40;99.90;;;;;;4965725;28;20042;-62
2022/03/10 04:38:26;;;;;;;25.45;12.05;;;4.30;99.90;;;;;;4964678;28;20043;-62
2022/03/10 04:40:51;;;;;;;23.13;11.23;;;4.30;99.90;;;;;;4967715;28;20043;-62
2022/03/10 04:43:17;;;;;;;24.08;11.30;;;4.30;99.90;;;;;;4964663;28;20137;-62
2022/03/10 04:45:43;;;;;;;25.42;12.80;;;4.30;99.90;;;;;;4962372;28;20131;-62
2022/03/10 04:48:09;;;;;;;23.75;11.45;;;4.30;99.90;;;;;;4963818;28;20114;-63
2022/03/10 04:50:35;;;;;;;24.67;12.45;;;4.30;99.90;;;;;;4963869;28;20039;-63
2022/03/10 04:53:01;;;;;;;22.70;11.85;;;4.20;99.90;;;;;;4963965;28;20477;-64
2022/03/10 04:55:26;;;;;;;26.20;12.25;;;4.20;99.90;;;;;;4960759;28;20567;-64
2022/03/10 04:57:52;;;;;;;26.55;12.95;;;4.20;99.90;;;;;;4970176;28;20069;-63
2022/03/10 05:00:19;;;;;;;27.52;11.57;;;4.10;99.90;;;;;;4962392;28;20401;-62
2022/03/10 05:02:47;;;;;;;27.17;13.10;;;4.10;99.90;;;;;;4933540;28;1071749;-62
2022/03/10 05:05:13;;;;;;;26.02;12.68;;;4.10;99.90;;;;;;4963945;28;20055;-62
2022/03/10 05:07:39;;;;;;;24.25;12.38;;;4.10;99.90;;;;;;4969927;28;20031;-62
2022/03/10 05:10:06;;;;;;;26.23;12.93;;;4.10;99.90;;;;;;4966951;28;20401;-63
2022/03/10 05:12:31;;;;;;;28.08;12.63;;;4.10;99.90;;;;;;4959632;28;20035;-64
2022/03/10 05:14:57;;;;;;;28.95;12.77;;;4.10;99.90;;;;;;4961878;28;20371;-64
2022/03/10 05:17:25;;;;;;;31.73;13.00;;;4.00;99.90;;;;;;4967634;28;20023;-63
2022/03/10 05:19:52;;;;;;;25.83;13.43;;;4.00;99.90;;;;;;4962418;28;20031;-64
2022/03/10 05:22:18;;;;;;;26.83;13.60;;;4.00;99.90;;;;;;4964213;28;20027;-61
2022/03/10 05:24:44;;;;;;;26.85;13.15;;;4.00;99.90;;;;;;4959442;28;20031;-63
2022/03/10 05:27:09;;;;;;;27.08;12.73;;;4.00;99.90;;;;;;4960630;28;20026;-61
2022/03/10 05:29:40;;;;;;;30.10;13.30;;;4.10;99.90;;;;;;4966195;28;20023;-63
2022/03/10 05:32:08;;;;;;;33.58;13.18;;;4.00;99.90;;;;;;4972657;28;20031;-62
2022/03/10 05:34:33;;;;;;;22.48;11.57;;;4.00;99.90;;;;;;4968568;28;20050;-61
2022/03/10 05:36:59;;;;;;;26.30;13.18;;;4.00;99.90;;;;;;4971391;28;20047;-58
2022/03/10 05:39:25;;;;;;;31.10;12.52;;;3.90;99.90;;;;;;4965278;28;20042;-58
2022/03/10 05:41:50;;;;;;;36.42;14.30;;;4.00;99.90;;;;;;4957150;28;20031;-59
2022/03/10 05:44:16;;;;;;;37.97;14.30;;;3.90;99.90;;;;;;4965903;28;20031;-61
2022/03/10 05:46:41;;;;;;;31.50;14.43;;;3.90;99.90;;;;;;4974514;28;20038;-60
2022/03/10 05:49:07;;;;;;;33.55;13.02;;;3.90;99.90;;;;;;4957089;28;20189;-60
2022/03/10 05:51:36;;;;;;;42.47;14.40;;;3.90;99.90;;;;;;4955805;28;20118;-60
2022/03/10 05:54:02;;;;;;;33.15;14.45;;;3.80;99.90;;;;;;4968444;28;20167;-61
2022/03/10 05:56:28;;;;;;;36.22;13.88;;;3.90;99.90;;;;;;4975285;28;20053;-61
2022/03/10 05:58:53;;;;;;;40.15;13.80;;;3.90;99.90;;;;;;4967462;28;20166;-58
2022/03/10 06:03:47;;;;;;;30.85;13.60;;;3.80;99.90;;;;;;4984125;28;20038;-67
2022/03/10 06:06:13;;;;;;;35.13;14.60;;;3.80;99.90;;;;;;4993313;28;20033;-66
2022/03/10 06:08:39;;;;;;;32.72;14.27;;;3.90;99.90;;;;;;4992924;28;20026;-67
2022/03/10 06:11:07;;;;;;;31.42;13.65;;;3.90;99.90;;;;;;4974134;28;20098;-68
2022/03/10 06:13:33;;;;;;;33.42;13.85;;;3.90;99.90;;;;;;4970181;28;20027;-67
2022/03/10 06:16:00;;;;;;;40.92;15.30;;;3.90;99.90;;;;;;4971314;28;20035;-67
2022/03/10 06:18:26;;;;;;;33.60;14.05;;;3.90;99.90;;;;;;4973715;28;20030;-68
2022/03/10 06:20:51;;;;;;;31.92;15.23;;;3.90;99.90;;;;;;4972947;28;20112;-68
2022/03/10 06:23:17;;;;;;;34.70;13.80;;;3.90;99.90;;;;;;4973784;28;20035;-67
2022/03/10 06:25:43;;;;;;;33.65;14.20;;;3.90;99.90;;;;;;4972790;28;20089;-67
2022/03/10 06:28:08;;;;;;;34.63;14.60;;;4.00;99.90;;;;;;4973669;28;20026;-67
2022/03/10 06:30:34;;;;;;;35.03;15.23;;;3.90;99.90;;;;;;4974294;28;20385;-67
2022/03/10 06:32:59;;;;;;;29.48;13.57;;;4.00;99.90;;;;;;4973683;28;20066;-66
2022/03/10 06:35:25;;;;;;;37.55;15.05;;;4.00;99.90;;;;;;4967029;28;20396;-67
2022/03/10 06:37:51;;;;;;;52.65;15.18;;;4.00;99.90;;;;;;4973614;28;20431;-69
2022/03/10 06:40:16;;;;;;;41.40;14.55;;;4.00;99.90;;;;;;4972785;28;20448;-68
2022/03/10 06:42:42;;;;;;;41.75;15.55;;;4.10;99.90;;;;;;4955917;28;20544;-66
2022/03/10 06:45:08;;;;;;;37.28;14.50;;;4.00;99.90;;;;;;4968464;28;20070;-67
2022/03/10 06:47:34;;;;;;;31.92;15.48;;;4.10;99.90;;;;;;4957948;28;20118;-68
2022/03/10 06:49:59;;;;;;;36.53;13.95;;;4.10;99.90;;;;;;4959248;28;20463;-68
2022/03/10 06:52:30;;;;;;;39.58;15.70;;;4.20;99.90;;;;;;4961994;28;20037;-67
2022/03/10 06:54:55;;;;;;;37.60;14.70;;;4.20;99.90;;;;;;4972697;28;20097;-67
2022/03/10 06:57:21;;;;;;;30.55;14.32;;;4.20;99.90;;;;;;4971245;28;20122;-66
2022/03/10 06:59:47;;;;;;;45.10;14.68;;;4.20;99.90;;;;;;4973168;28;20026;-66
2022/03/10 07:02:12;;;;;;;36.60;15.18;;;4.30;99.90;;;;;;4972813;28;20430;-66
2022/03/10 07:04:38;;;;;;;34.88;15.05;;;4.30;99.90;;;;;;4973109;28;20019;-67
2022/03/10 07:07:04;;;;;;;39.85;16.33;;;4.30;99.90;;;;;;4971158;28;20034;-68
2022/03/10 07:09:29;;;;;;;40.58;14.57;;;4.30;99.90;;;;;;4971349;28;20039;-60
2022/03/10 07:11:55;;;;;;;40.30;15.73;;;4.40;99.90;;;;;;4972628;28;20051;-60
2022/03/10 07:14:21;;;;;;;44.08;15.75;;;4.50;99.90;;;;;;4969813;28;20027;-56
2022/03/10 07:16:46;;;;;;;39.22;15.45;;;4.60;99.90;;;;;;4963423;28;20034;-59
2022/03/10 07:19:13;;;;;;;34.80;15.50;;;4.60;99.90;;;;;;4955898;28;20026;-55
2022/03/10 07:21:38;;;;;;;45.80;15.40;;;4.60;99.90;;;;;;4963567;28;20035;-67
2022/03/10 07:24:05;;;;;;;33.72;14.43;;;4.60;99.90;;;;;;4967638;28;20034;-66
2022/03/10 07:26:31;;;;;;;36.00;15.43;;;4.60;99.90;;;;;;4971627;28;20424;-67
2022/03/10 07:28:59;;;;;;;29.73;14.30;;;4.70;99.90;;;;;;4972520;28;20059;-67
2022/03/10 07:31:26;;;;;;;40.08;15.18;;;4.70;99.90;;;;;;4972835;28;20067;-66
2022/03/10 07:33:52;;;;;;;36.35;15.48;;;4.70;99.90;;;;;;4961002;28;20118;-66
2022/03/10 07:36:17;;;;;;;44.88;15.90;;;4.70;99.90;;;;;;4961014;28;20196;-66
2022/03/10 07:38:43;;;;;;;30.40;15.15;;;4.70;99.90;;;;;;4969171;28;20097;-66
2022/03/10 07:41:08;;;;;;;36.13;16.45;;;4.80;99.90;;;;;;4968192;28;20034;-67
2022/03/10 07:43:34;;;;;;;36.38;16.15;;;4.80;99.90;;;;;;4971850;28;20033;-65
2022/03/10 07:46:00;;;;;;;33.65;15.82;;;4.90;99.90;;;;;;4970384;28;20039;-66
2022/03/10 07:48:26;;;;;;;37.65;16.48;;;4.90;99.90;;;;;;4971161;28;20295;-66
2022/03/10 07:50:52;;;;;;;33.20;14.75;;;5.10;99.90;;;;;;4970193;28;20387;-66
2022/03/10 07:53:19;;;;;;;37.67;14.73;;;5.00;99.90;;;;;;4972135;28;20042;-67
2022/03/10 07:55:45;;;;;;;29.80;13.90;;;5.10;99.90;;;;;;4971716;28;20023;-67
2022/03/10 07:58:11;;;;;;;34.78;15.20;;;5.10;99.90;;;;;;4972586;28;20031;-66
2022/03/10 08:00:36;;;;;;;40.60;15.38;;;5.10;99.90;;;;;;4969598;28;20035;-67
2022/03/10 08:03:02;;;;;;;33.38;14.07;;;5.20;99.90;;;;;;4953321;28;20047;-66
2022/03/10 08:05:28;;;;;;;45.53;15.73;;;5.20;99.90;;;;;;4953220;28;20066;-66
2022/03/10 08:07:53;;;;;;;43.90;15.88;;;5.20;99.90;;;;;;4953114;28;20059;-66
2022/03/10 08:10:19;;;;;;;34.88;15.80;;;5.20;99.90;;;;;;4952864;28;20027;-66
2022/03/10 08:12:44;;;;;;;37.33;14.82;;;5.30;99.90;;;;;;4952433;28;20038;-67
2022/03/10 08:15:10;;;;;;;37.15;15.25;;;5.40;99.90;;;;;;4952101;28;20039;-66
2022/03/10 08:17:37;;;;;;;36.22;16.05;;;5.50;99.90;;;;;;4952434;28;20852;-68
2022/03/10 08:20:03;;;;;;;36.88;15.18;;;5.50;99.90;;;;;;4952527;28;20025;-66
2022/03/10 08:22:29;;;;;;;34.65;15.52;;;5.60;99.90;;;;;;4950791;28;20027;-68
2022/03/10 08:24:55;;;;;;;43.67;15.23;;;5.60;99.90;;;;;;4952047;28;20093;-68
2022/03/10 08:27:20;;;;;;;38.67;14.68;;;5.70;99.90;;;;;;4951978;28;20105;-68
2022/03/10 08:29:46;;;;;;;32.60;15.32;;;5.60;99.90;;;;;;4951024;29;20154;-68
2022/03/10 08:32:13;;;;;;;37.63;15.45;;;5.60;99.90;;;;;;4951236;28;20433;-68
2022/03/10 08:34:38;;;;;;;30.48;13.88;;;5.70;99.90;;;;;;4951135;29;20023;-68
2022/03/10 08:37:04;;;;;;;36.00;14.90;;;5.80;99.90;;;;;;4952687;28;20481;-67
2022/03/10 08:39:30;;;;;;;38.33;15.70;;;5.90;99.90;;;;;;4952542;28;20035;-67
2022/03/10 08:41:56;;;;;;;38.70;16.25;;;5.90;99.90;;;;;;4950944;28;20035;-68
2022/03/10 08:44:22;;;;;;;35.05;15.82;;;6.00;99.90;;;;;;4952360;28;20031;-68
2022/03/10 08:46:48;;;;;;;33.05;15.02;;;6.10;99.90;;;;;;4950704;29;20125;-67
2022/03/10 08:49:14;;;;;;;41.88;15.40;;;6.10;99.90;;;;;;4952458;28;20416;-69
2022/03/10 08:51:44;;;;;;;33.92;15.75;;;6.20;99.90;;;;;;4952243;28;20039;-67
2022/03/10 08:54:11;;;;;;;33.65;14.55;;;6.30;99.90;;;;;;4953006;28;20043;-68
2022/03/10 08:56:36;;;;;;;32.63;15.73;;;6.40;99.90;;;;;;4951498;29;20106;-68
2022/03/10 08:59:02;;;;;;;37.03;15.90;;;6.50;99.90;;;;;;4952161;28;20043;-68
2022/03/10 09:01:29;;;;;;;41.15;14.93;;;6.70;99.90;;;;;;4950384;28;20023;-68
2022/03/10 09:03:55;;;;;;;29.02;15.32;;;6.70;99.90;;;;;;4953217;28;20050;-69
2022/03/10 09:06:20;;;;;;;37.75;15.60;;;6.80;99.90;;;;;;4955136;28;20035;-68
2022/03/10 09:08:46;;;;;;;34.67;15.45;;;6.90;99.90;;;;;;4954693;29;20523;-68
2022/03/10 09:11:12;;;;;;;32.05;14.55;;;7.00;99.90;;;;;;4956089;28;20019;-67
2022/03/10 09:13:37;;;;;;;29.63;14.25;;;7.20;99.90;;;;;;4955418;28;20496;-66
2022/03/10 09:16:03;;;;;;;27.73;14.80;;;7.30;99.90;;;;;;4955595;28;20027;-68
2022/03/10 09:18:29;;;;;;;27.85;13.60;;;7.50;99.90;;;;;;4955693;28;20481;-66
2022/03/10 09:20:55;;;;;;;31.48;14.60;;;7.50;99.90;;;;;;4974400;28;20134;-68
2022/03/10 09:23:21;;;;;;;28.85;13.65;;;7.60;99.90;;;;;;4973211;28;20061;-68
2022/03/10 09:25:47;;;;;;;27.05;13.98;;;7.70;99.90;;;;;;4972616;28;20077;-67
2022/03/10 09:28:13;;;;;;;25.92;13.98;;;7.80;99.90;;;;;;4946735;28;20022;-67
2022/03/10 09:30:39;;;;;;;30.05;14.32;;;7.90;99.90;;;;;;4974561;28;20030;-68
2022/03/10 09:33:04;;;;;;;26.85;13.80;;;8.10;99.90;;;;;;4973844;28;20035;-67
2022/03/10 09:35:30;;;;;;;23.00;12.77;;;8.10;99.90;;;;;;4972686;28;20038;-67
2022/03/10 09:37:55;;;;;;;30.73;14.30;;;8.10;99.90;;;;;;4971846;28;20050;-68
2022/03/10 09:40:21;;;;;;;30.40;14.63;;;8.00;99.90;;;;;;4974106;28;20117;-67
2022/03/10 09:42:48;;;;;;;25.42;13.68;;;8.30;99.90;;;;;;4973008;28;20046;-68
2022/03/10 09:45:16;;;;;;;37.10;13.55;;;8.40;99.90;;;;;;4974222;28;20070;-68
2022/03/10 09:47:44;;;;;;;25.60;13.15;;;8.50;99.90;;;;;;4974753;28;20072;-67
2022/03/10 09:50:18;;;;;;;29.17;13.52;;;8.60;99.90;;;;;;4972075;28;20187;-68
2022/03/10 09:52:45;;;;;;;28.77;14.23;;;8.70;99.90;;;;;;4957148;28;20034;-67
2022/03/10 09:55:13;;;;;;;26.90;14.52;;;8.80;99.90;;;;;;4973268;28;20507;-68
2022/03/10 09:57:41;;;;;;;30.90;14.13;;;8.90;99.90;;;;;;4959206;28;20536;-67
2022/03/10 10:00:10;;;;;;;28.40;14.00;;;9.00;99.90;;;;;;4946123;28;20396;-68
2022/03/10 10:02:37;;;;;;;33.45;14.00;;;9.30;99.90;;;;;;4971816;28;20054;-67
2022/03/10 10:05:19;;;;;;;38.20;12.95;;;9.30;99.90;;;;;;4969321;28;20091;-68
2022/03/10 10:08:03;;;;;;;30.05;14.25;;;9.40;99.90;;;;;;4972514;28;20050;-67
2022/03/10 10:10:30;;;;;;;30.35;12.98;;;9.50;99.90;;;;;;4973253;28;20022;-67
2022/03/10 10:12:55;;;;;;;32.42;13.40;;;9.40;99.90;;;;;;4973227;28;20022;-68
2022/03/10 10:15:21;;;;;;;27.63;14.10;;;9.60;99.90;;;;;;4971952;28;20528;-68
2022/03/10 10:17:56;;;;;;;27.92;13.20;;;9.80;99.90;;;;;;4971965;28;20039;-67
2022/03/10 10:20:22;;;;;;;30.35;14.65;;;9.90;99.90;;;;;;4971246;28;20576;-67
2022/03/10 10:22:51;;;;;;;28.33;13.95;;;9.90;99.90;;;;;;4971848;28;20041;-68
2022/03/10 10:25:21;;;;;;;34.33;14.32;;;10.00;99.90;;;;;;4972169;28;20027;-67
2022/03/10 10:27:47;;;;;;;28.52;13.00;;;10.20;99.90;;;;;;4973049;28;20031;-68
2022/03/10 10:30:13;;;;;;;32.30;14.27;;;10.20;99.90;;;;;;4971816;28;20033;-67
2022/03/10 10:32:55;;;;;;;26.58;13.90;;;10.40;99.90;;;;;;4972740;28;20454;-67
2022/03/10 10:35:21;;;;;;;28.70;12.55;;;10.30;99.90;;;;;;4971558;28;20026;-67
2022/03/10 10:37:50;;;;;;;29.70;13.40;;;10.60;98.60;;;;;;4971708;28;20034;-68
2022/03/10 10:40:27;;;;;;;29.83;14.18;;;10.40;99.20;;;;;;4971253;28;20471;-68
2022/03/10 10:42:54;;;;;;;27.25;13.95;;;10.40;99.10;;;;;;4971704;28;20033;-67
2022/03/10 10:45:37;;;;;;;30.13;14.15;;;10.60;98.30;;;;;;4970997;28;20161;-68
2022/03/10 10:48:11;;;;;;;30.48;14.43;;;10.60;98.60;;;;;;4973287;28;20095;-68
2022/03/10 10:50:42;;;;;;;34.65;15.20;;;10.70;97.90;;;;;;4972375;28;20089;-69
2022/03/10 10:53:08;;;;;;;29.13;14.00;;;10.80;98.00;;;;;;4972390;28;20134;-68
2022/03/10 10:55:45;;;;;;;27.08;14.02;;;11.00;97.50;;;;;;4971760;28;20031;-69
2022/03/10 10:58:14;;;;;;;31.17;14.27;;;11.10;97.60;;;;;;4959536;28;20032;-68
2022/03/10 11:00:42;;;;;;;29.80;13.52;;;11.10;97.00;;;;;;4969928;28;20374;-68
2022/03/10 11:03:22;;;;;;;29.77;14.82;;;11.20;95.10;;;;;;4972782;28;20044;-68
2022/03/10 11:05:48;;;;;;;26.02;13.35;;;11.30;95.70;;;;;;4970618;28;20063;-68
2022/03/10 11:08:18;;;;;;;30.25;14.25;;;11.50;94.70;;;;;;4972652;28;20038;-69
2022/03/10 11:10:44;;;;;;;34.70;14.20;;;11.60;94.30;;;;;;4973933;28;20027;-69
2022/03/10 11:13:10;;;;;;;26.35;13.45;;;11.50;94.30;;;;;;4971853;28;20031;-68
2022/03/10 11:15:38;;;;;;;32.03;14.00;;;11.70;93.00;;;;;;4972143;28;20035;-69
2022/03/10 11:18:04;;;;;;;29.35;13.13;;;11.90;92.50;;;;;;4955526;28;20027;-69
2022/03/10 11:20:31;;;;;;;27.67;13.25;;;12.00;92.20;;;;;;4972488;28;20030;-68
2022/03/10 11:23:15;;;;;;;33.13;14.32;;;12.10;91.30;;;;;;4972741;28;20045;-68
2022/03/10 11:25:53;;;;;;;28.30;14.07;;;12.20;91.20;;;;;;4971180;28;20094;-68
2022/03/10 11:28:26;;;;;;;27.50;13.45;;;12.30;90.30;;;;;;4971146;28;20023;-68
2022/03/10 11:31:00;;;;;;;28.70;14.02;;;12.40;88.40;;;;;;4971339;28;20031;-69
2022/03/10 11:33:37;;;;;;;30.73;14.32;;;12.20;89.00;;;;;;4970637;28;20027;-69
2022/03/10 11:36:24;;;;;;;25.30;13.57;;;12.20;88.00;;;;;;4971886;28;20218;-68
2022/03/10 11:38:51;;;;;;;29.38;13.10;;;12.20;89.60;;;;;;4972466;28;20161;-68
2022/03/10 11:41:17;;;;;;;26.75;12.80;;;12.60;85.50;;;;;;4970526;28;20077;-68
2022/03/10 11:43:58;;;;;;;22.42;12.25;;;12.80;81.80;;;;;;4972454;28;20152;-67
2022/03/10 11:46:29;;;;;;;25.90;13.38;;;12.90;79.10;;;;;;4971721;28;20476;-69
2022/03/10 11:49:15;;;;;;;25.27;13.10;;;13.00;78.60;;;;;;4972246;28;20102;-69
2022/03/10 11:51:52;;;;;;;25.27;12.57;;;13.20;76.40;;;;;;4972036;28;20025;-67
2022/03/10 11:54:21;;;;;;;22.92;12.73;;;13.50;75.40;;;;;;4972030;28;20023;-69
2022/03/10 11:56:52;;;;;;;24.05;13.60;;;13.60;73.80;;;;;;4971408;28;20110;-69
2022/03/10 11:59:24;;;;;;;29.33;13.20;;;13.70;68.90;;;;;;4971846;28;20039;-68
2022/03/10 12:01:51;;;;;;;30.50;12.68;;;13.80;68.00;;;;;;4972267;28;20039;-69
2022/03/10 12:04:21;;;;;;;26.95;13.43;;;14.40;66.30;;;;;;4970401;28;20034;-68
2022/03/10 12:06:59;;;;;;;28.05;13.70;;;15.20;63.00;;;;;;4971410;28;20023;-68
2022/03/10 12:09:30;;;;;;;35.45;13.25;;;16.40;59.90;;;;;;4971889;28;20030;-69
2022/03/10 12:12:15;;;;;;;30.52;12.60;;;17.40;55.90;;;;;;4970629;28;20037;-68
2022/03/10 12:14:41;;;;;;;28.67;12.38;;;17.20;52.60;;;;;;4971741;28;20029;-68
2022/03/10 12:17:44;;;;;;;28.20;12.15;;;17.30;52.00;;;;;;4971411;28;20396;-68
2022/03/10 12:20:13;;;;;;;24.35;11.90;;;17.60;50.40;;;;;;4971709;28;20050;-66
2022/03/10 12:22:38;;;;;;;27.98;12.57;;;17.70;48.20;;;;;;4971307;28;20440;-67
2022/03/10 12:25:22;;;;;;;30.02;11.23;;;17.70;47.40;;;;;;4970932;28;20054;-67
2022/03/10 12:27:54;;;;;;;20.27;10.13;;;17.60;46.30;;;;;;4971679;28;20484;-67
2022/03/10 12:30:24;;;;;;;15.90;9.27;;;17.70;44.40;;;;;;4971362;28;20026;-67
2022/03/10 12:32:52;;;;;;;19.20;10.23;;;17.60;43.00;;;;;;4971901;28;20423;-67
2022/03/10 12:35:38;;;;;;;17.92;9.75;;;17.80;42.70;;;;;;4970742;28;20030;-67
2022/03/10 12:38:04;;;;;;;16.13;9.63;;;17.50;42.20;;;;;;4971700;28;20031;-67
2022/03/10 12:40:32;;;;;;;19.48;9.43;;;17.90;42.70;;;;;;4971350;28;20106;-67
2022/03/10 12:43:06;;;;;;;14.77;8.73;;;18.10;40.90;;;;;;4970114;28;20053;-67
2022/03/10 12:45:32;;;;;;;16.55;9.23;;;18.00;39.60;;;;;;4969746;28;20386;-67
2022/03/10 12:48:09;;;;;;;14.73;8.60;;;17.90;38.90;;;;;;4969872;28;20030;-69